Pleasant Valley, Iowa
Current Conditions -  °F | °C
As of 8:28 AM on Sunday 23 Nov 2014 (Local Time) from KDVN Reporting Station
Moderate Rain Moderate Rain  
Wind Chill: 43°   Ceiling: 1100
Heat Index: 49°   Visibility: 2mi
Dew Point: 47°   Wind: 15mph
Humidity: 93%   Direction: 170°S
Pressure: 29.64"   Gusts: NA
Location:  41.57°N, 90.42°W
Report Text: KDVN 231428Z AUTO 17013KT 2SM RA BR FEW006 BKN011 OVC021 09/08 A2964 RMK AO2 P0008 T00940083
Loading
Personal Weather Stations






























Interactive Weather Map New forecast layout! Learn more

10-Day Weather Forecast

Advertisements
Track Severe Weather on mobile